Latest Coastal Weather Observations for Rosslyn Bay Harbour

IDQ60701

Issued at 7:02 am EST Thursday 24 August 2017 (issued every 10 minutes, with the page automatically refreshed every 10 minutes)

About coastal observations | Map of coastal stations | Coastal observations for QLD | Marine services | Other Formats
Station Details ID: 033208 Name: ROSSLYN BAY NTC AWS Lat: -23.16 Lon: 150.79 Height: 0.0 m
Data from the previous 72 hours. | See also: Recent months for locations in Queensland
Date/Time
EST
Temp
°C
Wind Pressure Rain since
9am
mm
Weather Cloud Vis
km
Sea
Height
m
Swell
Dir  Spd
kts
Gust
kts
hPa Trend Height
m
Period
s
Dir
24/07:00am 19.0 CALM 0 2 1017.7 - - - - - - - - -
24/06:30am 18.9 SSW 1 2 1017.4 - - - - - - - - -
24/06:00am 19.0 CALM 0 1 1017.1 - - - - - - - - -
24/05:30am 19.1 CALM 0 2 1016.9 - - - - - - - - -
24/05:00am 19.3 WNW 2 5 1016.7 - - - - - - - - -
24/04:30am 19.8 NNW 4 5 1016.6 - - - - - - - - -
24/04:00am 19.8 N 4 6 1016.4 - - - - - - - - -
24/03:30am 20.0 N 5 7 1016.6 - - - - - - - - -
24/03:00am 21.3 NNE 10 15 1016.8 - - - - - - - - -
24/02:30am 21.4 NE 9 15 1017.0 - - - - - - - - -
24/02:00am 21.5 NE 8 14 1017.2 - - - - - - - - -
24/01:30am 20.2 NE 5 8 1017.6 - - - - - - - - -
24/01:00am 20.2 N 3 4 1018.2 - - - - - - - - -
24/12:30am 20.3 N 3 5 1018.4 - - - - - - - - -
24/12:00am 20.3 N 4 6 1018.6 - - - - - - - - -
 
Date/Time
EST
Temp
°C
Wind Pressure Rain since
9am
mm
Weather Cloud Vis
km
Sea
Height
m
Swell
Dir  Spd
kts
Gust
kts
hPa Trend Height
m
Period
s
Dir
23/11:30pm 20.4 N 3 5 1018.7 - - - - - - - - -
23/11:00pm 20.5 N 3 5 1018.9 - - - - - - - - -
23/10:30pm 20.7 NNW 4 6 1018.7 - - - - - - - - -
23/10:00pm 20.9 N 4 7 1018.8 - - - - - - - - -
23/09:30pm 21.7 NE 8 12 1018.7 - - - - - - - - -
23/09:00pm 21.7 NNE 8 12 1018.6 - - - - - - - - -
23/08:30pm 21.5 NNE 7 10 1018.4 - - - - - - - - -
23/08:00pm 21.7 NNE 7 10 1018.3 - - - - - - - - -
23/07:30pm 21.7 NNE 7 9 1018.2 - - - - - - - - -
23/07:00pm 21.7 NNE 7 9 1018.0 - - - - - - - - -
23/06:30pm 21.8 NNE 7 9 1017.8 - - - - - - - - -
23/06:00pm 21.8 NNE 6 9 1017.7 - - - - - - - - -
23/05:30pm 21.9 NE 8 10 1017.5 - - - - - - - - -
23/05:00pm 21.9 NE 9 10 1017.5 - - - - - - - - -
23/04:30pm 22.1 NE 6 10 1017.2 - - - - - - - - -
23/04:00pm 22.0 ENE 9 11 1017.3 - - - - - - - - -
23/03:30pm 22.6 ENE 7 11 1017.2 - - - - - - - - -
23/03:00pm 22.8 ENE 6 11 1017.5 - - - - - - - - -
23/02:30pm 23.0 ENE 6 13 1017.7 - - - - - - - - -
23/02:00pm 22.1 ENE 8 10 1018.0 - - - - - - - - -
23/01:30pm 22.1 ENE 8 10 1018.2 - - - - - - - - -
23/01:00pm 22.3 ENE 7 9 1018.5 - - - - - - - - -
23/12:30pm 22.0 NE 8 10 1018.8 - - - - - - - - -
23/12:00pm 21.9 NE 8 10 1019.2 - - - - - - - - -
23/11:30am 22.0 NE 5 7 1019.6 - - - - - - - - -
23/11:00am 22.2 NE 3 5 1020.1 - - - - - - - - -
23/10:30am 22.1 ENE 2 4 1020.5 - - - - - - - - -
23/10:00am 22.1 CALM 0 1 1020.8 - - - - - - - - -
23/09:30am 22.1 CALM 0 0 1020.9 - - - - - - - - -
23/09:00am 23.7 CALM 0 0 1020.9 - - - - - - - - -
23/08:30am 21.3 CALM 0 2 1020.6 - - - - - - - - -
23/08:00am 20.4 CALM 0 0 1020.3 - - - - - - - - -
23/07:30am 19.8 CALM 0 2 1020.1 - - - - - - - - -
23/07:00am 19.1 S 3 4 1019.9 - - - - - - - - -
23/06:30am 18.2 S 4 5 1019.8 - - - - - - - - -
23/06:00am 19.7 CALM 0 2 1019.5 - - - - - - - - -
23/05:30am 19.5 SSW 1 2 1019.3 - - - - - - - - -
23/05:00am 19.3 CALM 0 2 1018.9 - - - - - - - - -
23/04:30am 19.5 WNW 1 4 1018.9 - - - - - - - - -
23/04:00am 20.3 N 3 5 1019.0 - - - - - - - - -
23/03:30am 20.1 NNW 4 5 1018.8 - - - - - - - - -
23/03:00am 20.1 N 3 5 1018.7 - - - - - - - - -
23/02:30am 20.4 N 3 5 1018.6 - - - - - - - - -
23/02:00am 20.4 N 4 6 1018.9 - - - - - - - - -
23/01:30am 20.4 N 5 7 1019.1 - - - - - - - - -
23/01:00am 20.4 N 5 6 1019.5 - - - - - - - - -
23/12:30am 20.4 N 4 5 1019.7 - - - - - - - - -
23/12:00am 20.2 N 3 5 1019.7 - - - - - - - - -
 
Date/Time
EST
Temp
°C
Wind Pressure Rain since
9am
mm
Weather Cloud Vis
km
Sea
Height
m
Swell
Dir  Spd
kts
Gust
kts
hPa Trend Height
m
Period
s
Dir
22/11:30pm 20.3 N 4 5 1019.6 - - - - - - - - -
22/11:00pm 20.5 N 4 6 1019.5 - - - - - - - - -
22/10:30pm 20.6 NNE 6 7 1019.5 - - - - - - - - -
22/10:00pm 20.5 N 5 7 1019.5 - - - - - - - - -
22/09:30pm 20.9 N 4 6 1019.6 - - - - - - - - -
22/09:00pm 21.0 N 4 5 1019.5 - - - - - - - - -
22/08:30pm 21.1 N 4 6 1019.3 - - - - - - - - -
22/08:00pm 21.8 NNE 10 13 1018.9 - - - - - - - - -
22/07:30pm 21.9 NNE 10 14 1018.6 - - - - - - - - -
22/07:00pm 21.8 NNE 11 15 1018.2 - - - - - - - - -
22/06:30pm 21.9 NNE 12 16 1017.7 - - - - - - - - -
22/06:00pm 21.8 NNE 10 15 1017.5 - - - - - - - - -
22/05:30pm 21.8 NE 10 15 1017.2 - - - - - - - - -
22/05:00pm 21.9 NE 8 13 1016.9 - - - - - - - - -
22/04:30pm 21.9 NE 11 16 1016.9 - - - - - - - - -
22/04:00pm 21.9 NE 12 16 1016.8 - - - - - - - - -
22/03:30pm 21.8 NE 13 15 1016.8 - - - - - - - - -
22/03:00pm 21.9 NE 12 14 1016.8 - - - - - - - - -
22/02:30pm 21.9 NE 11 13 1016.9 - - - - - - - - -
22/02:00pm 21.8 NE 11 13 1017.0 - - - - - - - - -
22/01:30pm 22.1 NE 7 12 1017.3 - - - - - - - - -
22/01:00pm 22.0 NE 8 11 1017.6 - - - - - - - - -
22/12:30pm 21.7 ENE 6 9 1018.1 - - - - - - - - -
22/12:00pm 21.8 NE 4 8 1018.6 - - - - - - - - -
22/11:30am 22.1 NNW 2 6 1019.1 - - - - - - - - -
22/11:00am 21.9 E 1 4 1019.4 - - - - - - - - -
22/10:30am 21.2 E 2 5 1019.7 - - - - - - - - -
22/10:00am 21.7 CALM 0 4 1019.9 - - - - - - - - -
22/09:30am 20.7 ENE 2 4 1020.0 - - - - - - - - -
22/09:00am 20.4 E 2 2 1019.9 - - - - - - - - -
22/08:30am 20.5 CALM 0 1 1019.7 - - - - - - - - -
22/08:00am 19.8 CALM 0 0 1019.6 - - - - - - - - -
22/07:30am 18.3 CALM 0 0 1019.5 - - - - - - - - -
22/07:00am 17.8 CALM 0 0 1019.2 - - - - - - - - -
22/06:30am 18.0 CALM 0 0 1018.9 - - - - - - - - -
22/06:00am 17.7 SW 1 2 1018.6 - - - - - - - - -
22/05:30am 18.9 S 1 2 1018.5 - - - - - - - - -
22/05:00am 19.0 SSW 1 3 1018.3 - - - - - - - - -
22/04:30am 19.0 SSW 1 3 1018.0 - - - - - - - - -
22/04:00am 19.1 CALM 0 1 1018.0 - - - - - - - - -
22/03:30am 19.6 NNW 3 5 1017.9 - - - - - - - - -
22/03:00am 19.6 N 6 9 1017.4 - - - - - - - - -
22/02:30am 20.3 NNE 9 14 1017.5 - - - - - - - - -
22/02:00am 20.7 NNE 10 14 1017.6 - - - - - - - - -
22/01:30am 20.6 NNE 7 13 1018.1 - - - - - - - - -
22/01:00am 20.0 N 3 5 1018.5 - - - - - - - - -
22/12:30am 19.9 NNW 4 6 1018.8 - - - - - - - - -
22/12:00am 20.8 NNE 10 13 1018.8 - - - - - - - - -
 
Date/Time
EST
Temp
°C
Wind Pressure Rain since
9am
mm
Weather Cloud Vis
km
Sea
Height
m
Swell
Dir  Spd
kts
Gust
kts
hPa Trend Height
m
Period
s
Dir
21/11:30pm 20.8 NNE 10 14 1018.7 - - - - - - - - -
21/11:00pm 20.7 NNE 10 13 1018.6 - - - - - - - - -
21/10:30pm 20.6 NE 9 13 1018.8 - - - - - - - - -
21/10:00pm 20.6 NE 10 13 1018.9 - - - - - - - - -
21/09:30pm 20.5 ENE 9 13 1019.1 - - - - - - - - -
21/09:00pm 20.5 ENE 8 11 1019.3 - - - - - - - - -
21/08:30pm 20.4 ENE 6 11 1019.3 - - - - - - - - -
21/08:00pm 20.3 ENE 4 11 1019.1 - - - - - - - - -
21/07:30pm 20.0 WNW 3 10 1018.7 - - - - - - - - -
21/07:00pm 19.9 WSW 3 8 1018.3 - - - - - - - - -
21/06:30pm 19.9 SSW 2 7 1018.2 - - - - - - - - -
21/06:00pm 19.9 S 3 7 1018.2 - - - - - - - - -
21/05:30pm 20.0 SSW 3 7 1018.1 - - - - - - - - -
21/05:00pm 20.3 SSW 3 9 1017.9 - - - - - - - - -
21/04:30pm 20.4 S 4 9 1017.9 - - - - - - - - -
21/04:00pm 20.2 S 4 9 1017.9 - - - - - - - - -
21/03:30pm 20.2 S 6 11 1018.0 - - - - - - - - -
21/03:00pm 19.9 S 7 12 1018.2 - - - - - - - - -
21/02:30pm 19.9 S 8 12 1018.5 - - - - - - - - -
21/02:00pm 20.0 S 9 14 1018.6 - - - - - - - - -
21/01:30pm 19.9 S 9 13 1018.6 - - - - - - - - -
21/01:00pm 20.2 S 6 9 1019.2 - - - - - - - - -
21/12:30pm 19.8 S 5 10 1019.6 - - - - - - - - -
21/12:00pm 19.3 S 7 10 1020.0 - - - - - - - - -
21/11:30am 19.0 S 6 9 1020.3 - - - - - - - - -
21/11:00am 19.2 S 6 11 1020.7 - - - - - - - - -
21/10:30am 18.6 S 8 13 1020.9 - - - - - - - - -
21/10:00am 18.7 SSE 7 10 1020.9 - - - - - - - - -
21/09:30am 18.7 S 4 8 1020.9 - - - - - - - - -
21/09:00am 17.7 S 5 10 1020.9 - - - - - - - - -
21/08:30am 16.8 S 5 8 1020.6 - - - - - - - - -
21/08:00am 16.0 SSW 5 7 1020.4 - - - - - - - - -
21/07:30am 14.2 S 4 7 1020.1 - - - - - - - - -

Other Formats:

Comma delimited format used in spreadsheet applications
http://www.bom.gov.au/fwo/IDQ60701/IDQ60701.95298.axf

JavaScript Object Notation format (JSON) in row-major order
http://www.bom.gov.au/fwo/IDQ60701/IDQ60701.95298.json